createdAt,value
2017-05-22T00:00:21.260Z,1017.14
2017-05-22T00:01:21.237Z,1017.11
2017-05-22T00:02:21.216Z,1017.1
2017-05-22T00:03:21.197Z,1017.11
2017-05-22T00:04:21.174Z,1017.08
2017-05-22T00:05:21.156Z,1017.09
2017-05-22T00:06:21.132Z,1017.09
2017-05-22T00:07:21.110Z,1017.11
2017-05-22T00:08:21.089Z,1017.11
2017-05-22T00:09:21.069Z,1017.07
2017-05-22T00:10:21.051Z,1017.04
2017-05-22T00:11:21.031Z,1017.05
2017-05-22T00:12:21.004Z,1017.05
2017-05-22T00:13:20.989Z,1017.07
2017-05-22T00:14:20.966Z,1017.01
2017-05-22T00:15:20.946Z,1017.01
2017-05-22T00:16:20.929Z,1017.02
2017-05-22T00:17:20.903Z,1017.02
2017-05-22T00:18:20.878Z,1016.99
2017-05-22T00:19:20.859Z,1017.02
2017-05-22T00:20:20.842Z,1016.98
2017-05-22T00:21:20.815Z,1016.97
2017-05-22T00:22:20.799Z,1016.95
2017-05-22T00:23:20.774Z,1016.94
2017-05-22T00:24:20.754Z,1016.94
2017-05-22T00:25:20.733Z,1016.89
2017-05-22T00:26:20.713Z,1016.85
2017-05-22T00:27:20.693Z,1016.9
2017-05-22T00:28:20.672Z,1016.91
2017-05-22T00:29:20.652Z,1016.9
2017-05-22T00:30:20.629Z,1016.89
2017-05-22T00:31:20.608Z,1016.85
2017-05-22T00:32:20.589Z,1016.88
2017-05-22T00:33:20.568Z,1016.88
2017-05-22T00:34:20.545Z,1016.84
2017-05-22T00:35:20.522Z,1016.84
2017-05-22T00:36:20.502Z,1016.85
2017-05-22T00:37:20.483Z,1016.87
2017-05-22T00:38:20.458Z,1016.85
2017-05-22T00:39:20.447Z,1016.84
2017-05-22T00:40:20.419Z,1016.82
2017-05-22T00:41:20.398Z,1016.84
2017-05-22T00:42:20.378Z,1016.84
2017-05-22T00:43:20.356Z,1016.9
2017-05-22T00:44:20.341Z,1016.87
2017-05-22T00:45:20.313Z,1016.84
2017-05-22T00:46:20.295Z,1016.85
2017-05-22T00:47:20.270Z,1016.84
2017-05-22T00:48:20.250Z,1016.89
2017-05-22T00:49:20.229Z,1016.82
2017-05-22T00:50:20.210Z,1016.87
2017-05-22T00:51:20.188Z,1016.84
2017-05-22T00:52:20.415Z,1016.83
2017-05-22T00:53:20.150Z,1016.83
2017-05-22T00:54:20.125Z,1016.79
2017-05-22T00:55:20.109Z,1016.82
2017-05-22T00:56:20.082Z,1016.82
2017-05-22T00:57:20.058Z,1016.84
2017-05-22T00:58:20.043Z,1016.79
2017-05-22T00:59:20.018Z,1016.81
2017-05-22T01:00:19.996Z,1016.79
2017-05-22T01:01:19.974Z,1016.78
2017-05-22T01:02:19.958Z,1016.81
2017-05-22T01:03:19.932Z,1016.75
2017-05-22T01:04:19.914Z,1016.74
2017-05-22T01:05:19.893Z,1016.78
2017-05-22T01:06:19.878Z,1016.75
2017-05-22T01:07:19.850Z,1016.73
2017-05-22T01:08:19.835Z,1016.74
2017-05-22T01:09:19.808Z,1016.69
2017-05-22T01:10:19.790Z,1016.7
2017-05-22T01:11:19.770Z,1016.65
2017-05-22T01:12:19.750Z,1016.67
2017-05-22T01:13:19.727Z,1016.66
2017-05-22T01:14:19.705Z,1016.63
2017-05-22T01:15:19.683Z,1016.66
2017-05-22T01:16:19.662Z,1016.64
2017-05-22T01:17:19.641Z,1016.6
2017-05-22T01:18:19.621Z,1016.6
2017-05-22T01:19:19.596Z,1016.63
2017-05-22T01:20:19.580Z,1016.64
2017-05-22T01:21:19.558Z,1016.6
2017-05-22T01:22:19.536Z,1016.65
2017-05-22T01:23:19.515Z,1016.62
2017-05-22T01:24:19.493Z,1016.62
2017-05-22T01:25:19.472Z,1016.6
2017-05-22T01:26:19.450Z,1016.63
2017-05-22T01:27:19.482Z,1016.6
2017-05-22T01:28:19.413Z,1016.65
2017-05-22T01:29:19.390Z,1016.6
2017-05-22T01:30:19.368Z,1016.63
2017-05-22T01:31:19.345Z,1016.56
2017-05-22T01:32:19.324Z,1016.57
2017-05-22T01:33:19.299Z,1016.54
2017-05-22T01:34:19.286Z,1016.58
2017-05-22T01:35:19.312Z,1016.54
2017-05-22T01:36:19.239Z,1016.53
2017-05-22T01:37:19.219Z,1016.55
2017-05-22T01:38:19.197Z,1016.54
2017-05-22T01:39:19.178Z,1016.56
2017-05-22T01:40:19.154Z,1016.54
2017-05-22T01:41:19.134Z,1016.51
2017-05-22T01:42:19.114Z,1016.49
2017-05-22T01:43:19.090Z,1016.46
2017-05-22T01:44:19.071Z,1016.48
2017-05-22T01:45:19.051Z,1016.49
2017-05-22T01:46:19.033Z,1016.47
2017-05-22T01:47:19.060Z,1016.46
2017-05-22T01:48:18.987Z,1016.43
2017-05-22T01:49:18.965Z,1016.43
2017-05-22T01:50:18.947Z,1016.44
2017-05-22T01:51:18.924Z,1016.46
2017-05-22T01:52:18.902Z,1016.41
2017-05-22T01:53:18.880Z,1016.38
2017-05-22T01:54:18.861Z,1016.39
2017-05-22T01:55:18.838Z,1016.41
2017-05-22T01:56:18.818Z,1016.42
2017-05-22T01:57:18.800Z,1016.37
2017-05-22T01:58:18.774Z,1016.36
2017-05-22T01:59:18.754Z,1016.36
2017-05-22T02:00:18.733Z,1016.37
2017-05-22T02:01:18.714Z,1016.31
2017-05-22T02:02:18.692Z,1016.34
2017-05-22T02:03:18.675Z,1016.34
2017-05-22T02:04:18.650Z,1016.33
2017-05-22T02:05:18.625Z,1016.32
2017-05-22T02:06:18.603Z,1016.32
2017-05-22T02:07:18.584Z,1016.32
2017-05-22T02:08:18.564Z,1016.34
2017-05-22T02:09:18.591Z,1016.32
2017-05-22T02:10:18.522Z,1016.34
2017-05-22T02:11:18.501Z,1016.32
2017-05-22T02:12:18.480Z,1016.38
2017-05-22T02:13:18.462Z,1016.34
2017-05-22T02:14:18.435Z,1016.29
2017-05-22T02:15:18.418Z,1016.32
2017-05-22T02:16:18.393Z,1016.27
2017-05-22T02:17:18.372Z,1016.29
2017-05-22T02:18:18.354Z,1016.28
2017-05-22T02:19:18.333Z,1016.26
2017-05-22T02:20:18.308Z,1016.28
2017-05-22T02:21:18.289Z,1016.32
2017-05-22T02:22:18.267Z,1016.38
2017-05-22T02:23:18.244Z,1016.31
2017-05-22T02:24:18.223Z,1016.27
2017-05-22T02:25:18.201Z,1016.3
2017-05-22T02:26:18.183Z,1016.33
2017-05-22T02:27:18.157Z,1016.3
2017-05-22T02:28:18.146Z,1016.26
2017-05-22T02:29:18.114Z,1016.31
2017-05-22T02:30:18.092Z,1016.3
2017-05-22T02:31:18.071Z,1016.27
2017-05-22T02:32:18.055Z,1016.26
2017-05-22T02:33:18.030Z,1016.21
2017-05-22T02:34:18.007Z,1016.19
2017-05-22T02:35:17.993Z,1016.22
2017-05-22T02:36:17.967Z,1016.2
2017-05-22T02:37:17.995Z,1016.19
2017-05-22T02:38:17.927Z,1016.2
2017-05-22T02:39:17.903Z,1016.15
2017-05-22T02:40:17.881Z,1016.17
2017-05-22T02:41:17.860Z,1016.14
2017-05-22T02:42:17.836Z,1016.15
2017-05-22T02:43:17.816Z,1016.09
2017-05-22T02:44:17.792Z,1016.14
2017-05-22T02:45:17.780Z,1016.15
2017-05-22T02:46:17.757Z,1016.09
2017-05-22T02:47:17.729Z,1016.15
2017-05-22T02:48:17.710Z,1016.09
2017-05-22T02:49:17.693Z,1016.07
2017-05-22T02:50:17.665Z,1016.07
2017-05-22T02:51:17.648Z,1016.12
2017-05-22T02:52:17.624Z,1016.13
2017-05-22T02:53:17.602Z,1016.11
2017-05-22T02:54:17.581Z,1016.13
2017-05-22T02:55:17.559Z,1016.14
2017-05-22T02:56:17.536Z,1016.12
2017-05-22T02:57:17.519Z,1016.12
2017-05-22T02:58:17.493Z,1016.13
2017-05-22T02:59:17.474Z,1016.1
2017-05-22T03:00:17.451Z,1016.08
2017-05-22T03:01:17.430Z,1016.06
2017-05-22T03:02:17.409Z,1016.06
2017-05-22T03:03:17.386Z,1016.07
2017-05-22T03:04:17.366Z,1016.05
2017-05-22T03:05:17.343Z,1016.05
2017-05-22T03:06:17.321Z,1016.08
2017-05-22T03:07:17.302Z,1016.02
2017-05-22T03:08:17.282Z,1016.05
2017-05-22T03:09:17.260Z,1016.05
2017-05-22T03:10:17.235Z,1016.02
2017-05-22T03:11:17.218Z,1015.98
2017-05-22T03:12:17.192Z,1015.96
2017-05-22T03:13:17.175Z,1015.98
2017-05-22T03:14:17.155Z,1015.96
2017-05-22T03:15:17.179Z,1015.99
2017-05-22T03:16:17.108Z,1015.98
2017-05-22T03:17:17.089Z,1015.97
2017-05-22T03:18:17.064Z,1016
2017-05-22T03:19:17.045Z,1015.99
2017-05-22T03:20:17.021Z,1015.96
2017-05-22T03:21:16.999Z,1015.94
2017-05-22T03:22:17.031Z,1015.91
2017-05-22T03:23:16.960Z,1015.98
2017-05-22T03:24:16.936Z,1015.9
2017-05-22T03:25:16.917Z,1015.96
2017-05-22T03:26:16.891Z,1015.92
2017-05-22T03:27:17.173Z,1015.92
2017-05-22T03:28:16.850Z,1015.94
2017-05-22T03:29:16.826Z,1015.92
2017-05-22T03:30:17.060Z,1015.9
2017-05-22T03:31:16.789Z,1015.95
2017-05-22T03:32:16.762Z,1015.92
2017-05-22T03:33:16.742Z,1015.94
2017-05-22T03:34:16.720Z,1015.91
2017-05-22T03:35:16.701Z,1015.86
2017-05-22T03:36:16.677Z,1015.87
2017-05-22T03:37:16.656Z,1015.86
2017-05-22T03:38:16.635Z,1015.89
2017-05-22T03:39:16.624Z,1015.86
2017-05-22T03:40:16.590Z,1015.87
2017-05-22T03:41:16.570Z,1015.88
2017-05-22T03:42:16.549Z,1015.86
2017-05-22T03:43:16.526Z,1015.9
2017-05-22T03:44:16.502Z,1015.86
2017-05-22T03:45:16.482Z,1015.89
2017-05-22T03:46:16.462Z,1015.88
2017-05-22T03:47:16.440Z,1015.86
2017-05-22T03:48:16.419Z,1015.84
2017-05-22T03:49:16.397Z,1015.85
2017-05-22T03:50:16.374Z,1015.85
2017-05-22T03:51:16.352Z,1015.84
2017-05-22T03:52:16.336Z,1015.84
2017-05-22T03:53:16.309Z,1015.77
2017-05-22T03:54:16.290Z,1015.82
2017-05-22T03:55:16.268Z,1015.79
2017-05-22T03:56:16.245Z,1015.79
2017-05-22T03:57:16.223Z,1015.81
2017-05-22T03:58:16.203Z,1015.8
2017-05-22T03:59:16.179Z,1015.8
2017-05-22T04:00:16.160Z,1015.78
2017-05-22T04:01:16.143Z,1015.82
2017-05-22T04:02:16.117Z,1015.77
2017-05-22T04:03:16.097Z,1015.78
2017-05-22T04:04:16.073Z,1015.76
2017-05-22T04:05:16.050Z,1015.77
2017-05-22T04:06:16.029Z,1015.78
2017-05-22T04:07:16.007Z,1015.75
2017-05-22T04:08:15.990Z,1015.79
2017-05-22T04:09:15.965Z,1015.82
2017-05-22T04:10:15.944Z,1015.82
2017-05-22T04:11:15.923Z,1015.8
2017-05-22T04:12:15.901Z,1015.79
2017-05-22T04:13:15.880Z,1015.82
2017-05-22T04:14:15.859Z,1015.81
2017-05-22T04:15:15.842Z,1015.79
2017-05-22T04:16:15.814Z,1015.81
2017-05-22T04:17:15.793Z,1015.84
2017-05-22T04:18:15.772Z,1015.83
2017-05-22T04:19:15.752Z,1015.81
2017-05-22T04:20:15.732Z,1015.81
2017-05-22T04:21:15.708Z,1015.8
2017-05-22T04:22:15.687Z,1015.81
2017-05-22T04:23:15.666Z,1015.77
2017-05-22T04:24:15.649Z,1015.76
2017-05-22T04:25:15.629Z,1015.77
2017-05-22T04:26:15.602Z,1015.76
2017-05-22T04:27:15.581Z,1015.74
2017-05-22T04:28:15.562Z,1015.75
2017-05-22T04:29:15.541Z,1015.74
2017-05-22T04:30:15.517Z,1015.74
2017-05-22T04:31:15.497Z,1015.74
2017-05-22T04:32:15.475Z,1015.74
2017-05-22T04:33:15.456Z,1015.79
2017-05-22T04:34:15.435Z,1015.77
2017-05-22T04:35:15.413Z,1015.73
2017-05-22T04:36:15.396Z,1015.77
2017-05-22T04:37:15.369Z,1015.72
2017-05-22T04:38:15.350Z,1015.72
2017-05-22T04:39:15.331Z,1015.68
2017-05-22T04:40:15.307Z,1015.65
2017-05-22T04:41:15.286Z,1015.67
2017-05-22T04:42:15.265Z,1015.72
2017-05-22T04:43:15.242Z,1015.65
2017-05-22T04:44:15.225Z,1015.72
2017-05-22T04:45:15.201Z,1015.71
2017-05-22T04:46:15.182Z,1015.64
2017-05-22T04:47:15.165Z,1015.65
2017-05-22T04:48:15.144Z,1015.63
2017-05-22T04:49:15.122Z,1015.65
2017-05-22T04:50:15.101Z,1015.62
2017-05-22T04:51:15.082Z,1015.65
2017-05-22T04:52:15.063Z,1015.64
2017-05-22T04:53:15.041Z,1015.66
2017-05-22T04:54:15.023Z,1015.61
2017-05-22T04:55:15.003Z,1015.64
2017-05-22T04:56:14.980Z,1015.62
2017-05-22T04:57:14.961Z,1015.63
2017-05-22T04:58:14.943Z,1015.61
2017-05-22T04:59:14.920Z,1015.66
2017-05-22T05:00:14.904Z,1015.64
2017-05-22T05:01:14.879Z,1015.63
2017-05-22T05:02:14.860Z,1015.62
2017-05-22T05:03:14.841Z,1015.6
2017-05-22T05:04:14.820Z,1015.59
2017-05-22T05:05:14.801Z,1015.58
2017-05-22T05:06:14.782Z,1015.59
2017-05-22T05:07:14.767Z,1015.56
2017-05-22T05:08:14.744Z,1015.58
2017-05-22T05:09:14.725Z,1015.55
2017-05-22T05:10:14.706Z,1015.52
2017-05-22T05:11:14.686Z,1015.54
2017-05-22T05:12:14.669Z,1015.55
2017-05-22T05:13:14.649Z,1015.55
2017-05-22T05:14:14.628Z,1015.53
2017-05-22T05:15:14.607Z,1015.55
2017-05-22T05:16:14.596Z,1015.54
2017-05-22T05:17:14.576Z,1015.53
2017-05-22T05:18:14.557Z,1015.53
2017-05-22T05:19:14.540Z,1015.53
2017-05-22T05:20:14.526Z,1015.51
2017-05-22T05:21:14.504Z,1015.5
2017-05-22T05:22:14.482Z,1015.49
2017-05-22T05:23:14.471Z,1015.52
2017-05-22T05:24:14.448Z,1015.49
2017-05-22T05:25:14.431Z,1015.51
2017-05-22T05:26:14.412Z,1015.5
2017-05-22T05:27:14.398Z,1015.49
2017-05-22T05:28:14.377Z,1015.51
2017-05-22T05:29:14.361Z,1015.49
2017-05-22T05:30:14.356Z,1015.52
2017-05-22T05:31:14.328Z,1015.51
2017-05-22T05:32:14.358Z,1015.49
2017-05-22T05:33:14.343Z,1015.49
2017-05-22T05:34:14.274Z,1015.49
2017-05-22T05:35:14.256Z,1015.51
2017-05-22T05:36:14.240Z,1015.46
2017-05-22T05:37:14.226Z,1015.47
2017-05-22T05:38:14.207Z,1015.43
2017-05-22T05:39:14.191Z,1015.45
2017-05-22T05:40:14.171Z,1015.47
2017-05-22T05:41:14.157Z,1015.44
2017-05-22T05:42:14.139Z,1015.45
2017-05-22T05:43:14.125Z,1015.38
2017-05-22T05:44:14.105Z,1015.41
2017-05-22T05:45:14.137Z,1015.39
2017-05-22T05:46:14.073Z,1015.37
2017-05-22T05:47:14.058Z,1015.36
2017-05-22T05:48:14.041Z,1015.38
2017-05-22T05:49:14.026Z,1015.37
2017-05-22T05:50:14.010Z,1015.36
2017-05-22T05:51:13.996Z,1015.37
2017-05-22T05:52:13.986Z,1015.34
2017-05-22T05:53:13.965Z,1015.34
2017-05-22T05:54:13.948Z,1015.34
2017-05-22T05:55:13.931Z,1015.38
2017-05-22T05:56:13.976Z,1015.38
2017-05-22T05:57:13.902Z,1015.39
2017-05-22T05:58:13.886Z,1015.35
2017-05-22T05:59:13.871Z,1015.41
2017-05-22T06:00:13.859Z,1015.36
2017-05-22T06:01:13.841Z,1015.39
2017-05-22T06:02:13.838Z,1015.37
2017-05-22T06:03:13.816Z,1015.36
2017-05-22T06:04:13.797Z,1015.39
2017-05-22T06:05:13.782Z,1015.4
2017-05-22T06:06:13.772Z,1015.41
2017-05-22T06:07:13.754Z,1015.37
2017-05-22T06:08:13.740Z,1015.36
2017-05-22T06:09:13.729Z,1015.44
2017-05-22T06:10:13.713Z,1015.4
2017-05-22T06:11:13.697Z,1015.41
2017-05-22T06:12:13.684Z,1015.41
2017-05-22T06:13:13.671Z,1015.43
2017-05-22T06:14:13.657Z,1015.41
2017-05-22T06:15:13.648Z,1015.44
2017-05-22T06:16:13.629Z,1015.43
2017-05-22T06:17:13.614Z,1015.45
2017-05-22T06:18:13.604Z,1015.45
2017-05-22T06:19:13.588Z,1015.41
2017-05-22T06:20:13.574Z,1015.49
2017-05-22T06:21:13.564Z,1015.44
2017-05-22T06:22:13.548Z,1015.53
2017-05-22T06:23:13.536Z,1015.43
2017-05-22T06:24:13.519Z,1015.46
2017-05-22T06:25:13.506Z,1015.5
2017-05-22T06:26:13.492Z,1015.45
2017-05-22T06:27:13.479Z,1015.41
2017-05-22T06:28:13.466Z,1015.48
2017-05-22T06:29:13.460Z,1015.48
2017-05-22T06:30:13.440Z,1015.46
2017-05-22T06:31:13.429Z,1015.48
2017-05-22T06:32:13.414Z,1015.5
2017-05-22T06:33:13.407Z,1015.48
2017-05-22T06:34:13.389Z,1015.51
2017-05-22T06:35:13.386Z,1015.41
2017-05-22T06:36:13.363Z,1015.46
2017-05-22T06:37:13.355Z,1015.4
2017-05-22T06:38:13.340Z,1015.45
2017-05-22T06:39:13.323Z,1015.49
2017-05-22T06:40:13.312Z,1015.42
2017-05-22T06:41:13.304Z,1015.4
2017-05-22T06:42:13.295Z,1015.4
2017-05-22T06:43:13.280Z,1015.39
2017-05-22T06:44:13.274Z,1015.42
2017-05-22T06:45:13.256Z,1015.4
2017-05-22T06:46:13.244Z,1015.45
2017-05-22T06:47:13.239Z,1015.44
2017-05-22T06:48:13.222Z,1015.44
2017-05-22T06:49:13.210Z,1015.43
2017-05-22T06:50:13.197Z,1015.4
2017-05-22T06:51:13.186Z,1015.41
2017-05-22T06:52:13.177Z,1015.47
2017-05-22T06:53:13.166Z,1015.43
2017-05-22T06:54:13.154Z,1015.45
2017-05-22T06:55:13.142Z,1015.39
2017-05-22T06:56:13.133Z,1015.42
2017-05-22T06:57:13.121Z,1015.4
2017-05-22T06:58:13.110Z,1015.44
2017-05-22T06:59:13.099Z,1015.42
2017-05-22T07:00:13.093Z,1015.41
2017-05-22T07:01:13.078Z,1015.41
2017-05-22T07:02:13.078Z,1015.39
2017-05-22T07:03:13.058Z,1015.38
2017-05-22T07:04:13.045Z,1015.35
2017-05-22T07:05:13.035Z,1015.4
2017-05-22T07:06:13.028Z,1015.44
2017-05-22T07:07:13.019Z,1015.41
2017-05-22T07:08:13.057Z,1015.39
2017-05-22T07:09:12.997Z,1015.4
2017-05-22T07:10:12.990Z,1015.37
2017-05-22T07:11:12.972Z,1015.42
2017-05-22T07:12:12.961Z,1015.4
2017-05-22T07:13:12.954Z,1015.44
2017-05-22T07:14:12.944Z,1015.41
2017-05-22T07:15:12.937Z,1015.4
2017-05-22T07:16:12.922Z,1015.43
2017-05-22T07:17:12.911Z,1015.45
2017-05-22T07:18:12.904Z,1015.43
2017-05-22T07:19:12.896Z,1015.44
2017-05-22T07:20:12.882Z,1015.42
2017-05-22T07:21:12.871Z,1015.43
2017-05-22T07:22:12.864Z,1015.46
2017-05-22T07:23:12.853Z,1015.41
2017-05-22T07:24:12.849Z,1015.44
2017-05-22T07:25:12.841Z,1015.41
2017-05-22T07:26:12.825Z,1015.45
2017-05-22T07:27:12.816Z,1015.44
2017-05-22T07:28:12.806Z,1015.46
2017-05-22T07:29:12.802Z,1015.48
2017-05-22T07:30:12.790Z,1015.46
2017-05-22T07:31:12.780Z,1015.48
2017-05-22T07:32:12.785Z,1015.49
2017-05-22T07:33:12.761Z,1015.48
2017-05-22T07:34:12.759Z,1015.52
2017-05-22T07:35:12.745Z,1015.49
2017-05-22T07:36:12.735Z,1015.47
2017-05-22T07:37:12.728Z,1015.46
2017-05-22T07:38:12.718Z,1015.47
2017-05-22T07:39:12.712Z,1015.42
2017-05-22T07:40:12.702Z,1015.42
2017-05-22T07:41:12.694Z,1015.41
2017-05-22T07:42:12.689Z,1015.5
2017-05-22T07:43:12.680Z,1015.36
2017-05-22T07:44:12.673Z,1015.33
2017-05-22T07:45:12.663Z,1015.36
2017-05-22T07:46:12.658Z,1015.35
2017-05-22T07:47:12.649Z,1015.36
2017-05-22T07:48:12.642Z,1015.3
2017-05-22T07:49:12.632Z,1015.3
2017-05-22T07:50:12.626Z,1015.31
2017-05-22T07:51:12.620Z,1015.25
2017-05-22T07:52:12.613Z,1015.29
2017-05-22T07:53:12.608Z,1015.27
2017-05-22T07:54:12.600Z,1015.28
2017-05-22T07:55:12.598Z,1015.31
2017-05-22T07:56:12.591Z,1015.28
2017-05-22T07:57:12.580Z,1015.26
2017-05-22T07:58:12.575Z,1015.26
2017-05-22T07:59:12.570Z,1015.28
2017-05-22T08:00:12.561Z,1015.22
2017-05-22T08:01:12.554Z,1015.2
2017-05-22T08:02:12.552Z,1015.17
2017-05-22T08:03:12.549Z,1015.14
2017-05-22T08:04:12.540Z,1015.18
2017-05-22T08:05:12.529Z,1015.16
2017-05-22T08:06:12.528Z,1015.16
2017-05-22T08:07:12.520Z,1015.15
2017-05-22T08:08:12.511Z,1015.1
2017-05-22T08:09:12.506Z,1015.12
2017-05-22T08:10:12.500Z,1015.09
2017-05-22T08:11:12.499Z,1015.16
2017-05-22T08:12:12.493Z,1015.13
2017-05-22T08:13:12.483Z,1015.09
2017-05-22T08:14:12.476Z,1015.14
2017-05-22T08:15:12.476Z,1015.11
2017-05-22T08:16:12.463Z,1015.08
2017-05-22T08:17:12.462Z,1015.06
2017-05-22T08:18:12.453Z,1015.06
2017-05-22T08:19:12.448Z,1015.03
2017-05-22T08:20:12.444Z,1015.06
2017-05-22T08:21:12.445Z,1014.97
2017-05-22T08:22:12.435Z,1014.97
2017-05-22T08:23:12.423Z,1015.02
2017-05-22T08:24:12.418Z,1015.02
2017-05-22T08:25:12.409Z,1015.03
2017-05-22T08:26:12.405Z,1014.97
2017-05-22T08:27:12.401Z,1014.97
2017-05-22T08:28:12.400Z,1014.99
2017-05-22T08:29:12.385Z,1014.99
2017-05-22T08:30:12.379Z,1014.98
2017-05-22T08:31:12.375Z,1014.95
2017-05-22T08:32:12.368Z,1014.95
2017-05-22T08:33:12.363Z,1014.94
2017-05-22T08:34:12.356Z,1014.94
2017-05-22T08:35:12.353Z,1015.01
2017-05-22T08:36:12.345Z,1014.97
2017-05-22T08:37:12.344Z,1014.93
2017-05-22T08:38:12.331Z,1014.93
2017-05-22T08:39:12.326Z,1014.91
2017-05-22T08:40:12.321Z,1014.95
2017-05-22T08:41:12.317Z,1014.88
2017-05-22T08:42:12.313Z,1014.91
2017-05-22T08:43:12.306Z,1014.9
2017-05-22T08:44:12.302Z,1014.86
2017-05-22T08:45:12.297Z,1014.91
2017-05-22T08:46:12.284Z,1014.92
2017-05-22T08:47:12.291Z,1014.95
2017-05-22T08:48:12.278Z,1014.92
2017-05-22T08:49:12.274Z,1014.88
2017-05-22T08:50:12.269Z,1014.85
2017-05-22T08:51:12.260Z,1014.84
2017-05-22T08:52:12.260Z,1014.82
2017-05-22T08:53:12.253Z,1014.83
2017-05-22T08:54:12.246Z,1014.89
2017-05-22T08:55:12.238Z,1014.88
2017-05-22T08:56:12.231Z,1014.9
2017-05-22T08:57:12.226Z,1014.84
2017-05-22T08:58:12.225Z,1014.83
2017-05-22T08:59:12.217Z,1014.83
2017-05-22T09:00:12.208Z,1014.79
2017-05-22T09:01:12.210Z,1014.85
2017-05-22T09:02:12.202Z,1014.79
2017-05-22T09:03:12.195Z,1014.9
2017-05-22T09:04:12.191Z,1014.9
2017-05-22T09:05:12.185Z,1014.79
2017-05-22T09:06:12.171Z,1014.84
2017-05-22T09:07:12.170Z,1014.8
2017-05-22T09:08:12.166Z,1014.82
2017-05-22T09:09:12.161Z,1014.86
2017-05-22T09:10:12.148Z,1014.9
2017-05-22T09:11:12.142Z,1014.85
2017-05-22T09:12:12.138Z,1014.83
2017-05-22T09:13:12.183Z,1014.85
2017-05-22T09:14:12.124Z,1014.88
2017-05-22T09:15:12.118Z,1014.82
2017-05-22T09:16:12.114Z,1014.83
2017-05-22T09:17:12.107Z,1014.79
2017-05-22T09:18:12.112Z,1014.76
2017-05-22T09:19:12.097Z,1014.76
2017-05-22T09:20:12.089Z,1014.82
2017-05-22T09:21:12.078Z,1014.82
2017-05-22T09:22:12.079Z,1014.8
2017-05-22T09:23:12.066Z,1014.79
2017-05-22T09:24:12.061Z,1014.77
2017-05-22T09:25:12.055Z,1014.73
2017-05-22T09:26:12.048Z,1014.75
2017-05-22T09:27:12.040Z,1014.8
2017-05-22T09:28:12.032Z,1014.92
2017-05-22T09:29:12.025Z,1014.78
2017-05-22T09:30:12.031Z,1014.74
2017-05-22T09:31:12.011Z,1014.73
2017-05-22T09:32:12.006Z,1014.68
2017-05-22T09:33:11.998Z,1014.7
2017-05-22T09:34:11.991Z,1014.7
2017-05-22T09:35:11.983Z,1014.67
2017-05-22T09:36:11.976Z,1014.67
2017-05-22T09:37:11.968Z,1014.64
2017-05-22T09:38:11.966Z,1014.72
2017-05-22T09:39:11.954Z,1014.67
2017-05-22T09:40:11.953Z,1014.72
2017-05-22T09:41:11.938Z,1014.73
2017-05-22T09:42:11.934Z,1014.7
2017-05-22T09:43:11.927Z,1014.67
2017-05-22T09:44:11.920Z,1014.65
2017-05-22T09:45:11.914Z,1014.61
2017-05-22T09:46:11.904Z,1014.65
2017-05-22T09:47:11.899Z,1014.65
2017-05-22T09:48:11.889Z,1014.66
2017-05-22T09:49:11.882Z,1014.6
2017-05-22T09:50:11.873Z,1014.56
2017-05-22T09:51:11.869Z,1014.6
2017-05-22T09:52:11.858Z,1014.57
2017-05-22T09:53:11.856Z,1014.56
2017-05-22T09:54:11.842Z,1014.57
2017-05-22T09:55:11.837Z,1014.56
2017-05-22T09:56:11.829Z,1014.53
2017-05-22T09:57:11.819Z,1014.65
2017-05-22T09:58:11.812Z,1014.41
2017-05-22T09:59:11.811Z,1014.45
2017-05-22T10:00:11.798Z,1014.5
2017-05-22T10:01:11.791Z,1014.46
2017-05-22T10:02:11.784Z,1014.48
2017-05-22T10:03:11.778Z,1014.56
2017-05-22T10:04:11.771Z,1014.4
2017-05-22T10:05:11.764Z,1014.4
2017-05-22T10:06:11.859Z,1014.37
2017-05-22T10:07:11.750Z,1014.47
2017-05-22T10:08:11.738Z,1014.41
2017-05-22T10:09:11.730Z,1014.42
2017-05-22T10:10:11.723Z,1014.37
2017-05-22T10:11:11.712Z,1014.4
2017-05-22T10:12:11.707Z,1014.35
2017-05-22T10:13:11.700Z,1014.39
2017-05-22T10:14:11.689Z,1014.4
2017-05-22T10:15:11.683Z,1014.34
2017-05-22T10:16:11.677Z,1014.35
2017-05-22T10:17:11.668Z,1014.27
2017-05-22T10:18:11.661Z,1014.25
2017-05-22T10:19:11.650Z,1014.33
2017-05-22T10:20:11.647Z,1014.25
2017-05-22T10:21:11.638Z,1014.26
2017-05-22T10:22:11.628Z,1014.26
2017-05-22T10:23:11.618Z,1014.22
2017-05-22T10:24:11.612Z,1014.26
2017-05-22T10:25:11.603Z,1014.24
2017-05-22T10:26:11.597Z,1014.22
2017-05-22T10:27:11.586Z,1014.22
2017-05-22T10:28:11.581Z,1014.19
2017-05-22T10:29:11.576Z,1014.2
2017-05-22T10:30:11.567Z,1014.22
2017-05-22T10:31:11.555Z,1014.16
2017-05-22T10:32:11.550Z,1014.12
2017-05-22T10:33:11.543Z,1014.11
2017-05-22T10:34:11.531Z,1014.03
2017-05-22T10:35:11.532Z,1014.08
2017-05-22T10:36:11.518Z,1014.12
2017-05-22T10:37:11.512Z,1014.08
2017-05-22T10:38:11.504Z,1014.11
2017-05-22T10:39:11.494Z,1014.14
2017-05-22T10:40:11.492Z,1014.04
2017-05-22T10:41:11.531Z,1014.02
2017-05-22T10:42:11.473Z,1014.09
2017-05-22T10:43:11.471Z,1013.99
2017-05-22T10:44:11.460Z,1013.99
2017-05-22T10:45:11.452Z,1013.95
2017-05-22T10:46:11.443Z,1013.93
2017-05-22T10:47:11.433Z,1013.97
2017-05-22T10:48:11.429Z,1014
2017-05-22T10:49:11.421Z,1014.02
2017-05-22T10:50:11.416Z,1014
2017-05-22T10:51:11.409Z,1013.96
2017-05-22T10:52:11.399Z,1013.9
2017-05-22T10:53:11.395Z,1013.91
2017-05-22T10:54:11.389Z,1013.92
2017-05-22T10:55:11.378Z,1013.97
2017-05-22T10:56:11.370Z,1013.94
2017-05-22T10:57:11.364Z,1013.92
2017-05-22T10:58:11.373Z,1013.92
2017-05-22T10:59:11.348Z,1013.91
2017-05-22T11:00:11.341Z,1013.9
2017-05-22T11:01:11.333Z,1013.93
2017-05-22T11:02:11.324Z,1013.92
2017-05-22T11:03:11.318Z,1013.89
2017-05-22T11:04:11.311Z,1013.86
2017-05-22T11:05:11.309Z,1013.86
2017-05-22T11:06:11.297Z,1013.82
2017-05-22T11:07:11.291Z,1013.8
2017-05-22T11:08:11.280Z,1013.81
2017-05-22T11:09:11.274Z,1013.75
2017-05-22T11:10:11.264Z,1013.75
2017-05-22T11:11:11.255Z,1013.68
2017-05-22T11:12:11.248Z,1013.7
2017-05-22T11:13:11.235Z,1013.77
2017-05-22T11:14:11.223Z,1013.8
2017-05-22T11:15:11.214Z,1013.77
2017-05-22T11:16:11.211Z,1013.73
2017-05-22T11:17:11.192Z,1013.66
2017-05-22T11:18:11.228Z,1013.69
2017-05-22T11:19:11.173Z,1013.67
2017-05-22T11:20:11.156Z,1013.63
2017-05-22T11:21:11.146Z,1013.56
2017-05-22T11:22:11.130Z,1013.63
2017-05-22T11:23:11.119Z,1013.69
2017-05-22T11:24:11.101Z,1013.57
2017-05-22T11:25:11.088Z,1013.58
2017-05-22T11:26:11.073Z,1013.6
2017-05-22T11:27:11.059Z,1013.55
2017-05-22T11:28:11.049Z,1013.56
2017-05-22T11:29:11.032Z,1013.66
2017-05-22T11:30:11.014Z,1013.65
2017-05-22T11:31:10.998Z,1013.59
2017-05-22T11:32:10.983Z,1013.57
2017-05-22T11:33:10.968Z,1013.51
2017-05-22T11:34:10.951Z,1013.53
2017-05-22T11:35:10.940Z,1013.48
2017-05-22T11:36:10.921Z,1013.51
2017-05-22T11:37:10.903Z,1013.51
2017-05-22T11:38:10.888Z,1013.56
2017-05-22T11:39:10.873Z,1013.48
2017-05-22T11:40:10.858Z,1013.48
2017-05-22T11:41:10.838Z,1013.5
2017-05-22T11:42:10.820Z,1013.49
2017-05-22T11:43:10.803Z,1013.54
2017-05-22T11:44:10.793Z,1013.46
2017-05-22T11:45:10.773Z,1013.44
2017-05-22T11:46:10.759Z,1013.48
2017-05-22T11:47:10.737Z,1013.44
2017-05-22T11:48:11.022Z,1013.46
2017-05-22T11:49:10.718Z,1013.51
2017-05-22T11:50:10.689Z,1013.46
2017-05-22T11:51:10.670Z,1013.46
2017-05-22T11:52:10.654Z,1013.51
2017-05-22T11:53:10.637Z,1013.53
2017-05-22T11:54:10.625Z,1013.46
2017-05-22T11:55:10.605Z,1013.39
2017-05-22T11:56:10.588Z,1013.43
2017-05-22T11:57:10.573Z,1013.4
2017-05-22T11:58:10.554Z,1013.39
2017-05-22T11:59:10.534Z,1013.41
2017-05-22T12:00:10.522Z,1013.46
2017-05-22T12:01:10.504Z,1013.42
2017-05-22T12:02:10.484Z,1013.44
2017-05-22T12:03:10.471Z,1013.45
2017-05-22T12:04:10.450Z,1013.41
2017-05-22T12:05:10.433Z,1013.38
2017-05-22T12:06:10.418Z,1013.39
2017-05-22T12:07:10.398Z,1013.35
2017-05-22T12:08:10.382Z,1013.39